createdAt,value
2023-02-13T00:00:49.360Z,60.95
2023-02-13T00:03:25.063Z,64.50
2023-02-13T00:05:52.548Z,71.55
2023-02-13T00:08:20.014Z,63.00
2023-02-13T00:10:48.019Z,63.22
2023-02-13T00:13:16.034Z,58.70
2023-02-13T00:15:43.410Z,60.75
2023-02-13T00:18:11.377Z,64.63
2023-02-13T00:20:38.584Z,55.38
2023-02-13T00:23:06.368Z,58.05
2023-02-13T00:25:33.812Z,63.67
2023-02-13T00:28:01.659Z,57.50
2023-02-13T00:30:29.181Z,57.20
2023-02-13T00:32:56.983Z,54.70
2023-02-13T00:35:25.231Z,64.88
2023-02-13T00:37:53.709Z,59.63
2023-02-13T00:40:25.127Z,54.25
2023-02-13T00:42:52.861Z,58.13
2023-02-13T00:45:20.289Z,56.05
2023-02-13T00:47:48.446Z,55.83
2023-02-13T00:50:15.976Z,55.35
2023-02-13T00:52:43.497Z,51.00
2023-02-13T00:55:13.120Z,54.85
2023-02-13T00:57:40.824Z,50.70
2023-02-13T01:00:08.726Z,51.90
2023-02-13T01:02:36.330Z,54.78
2023-02-13T01:05:03.907Z,64.00
2023-02-13T01:07:31.364Z,61.85
2023-02-13T01:09:58.429Z,58.20
2023-02-13T01:12:27.665Z,56.75
2023-02-13T01:14:54.918Z,46.50
2023-02-13T01:17:22.682Z,55.05
2023-02-13T01:19:49.881Z,43.35
2023-02-13T01:22:17.517Z,54.28
2023-02-13T01:24:44.835Z,47.58
2023-02-13T01:27:12.394Z,43.60
2023-02-13T01:29:39.596Z,45.83
2023-02-13T01:32:07.148Z,46.60
2023-02-13T01:34:34.698Z,48.15
2023-02-13T01:37:02.278Z,47.65
2023-02-13T01:39:29.593Z,47.53
2023-02-13T01:41:57.221Z,50.75
2023-02-13T01:45:12.525Z,40.83
2023-02-13T01:47:45.758Z,41.90
2023-02-13T01:50:31.657Z,42.90
2023-02-13T01:53:08.526Z,44.65
2023-02-13T01:55:45.155Z,39.55
2023-02-13T01:58:16.009Z,43.65
2023-02-13T02:00:50.013Z,39.00
2023-02-13T02:03:40.355Z,43.13
2023-02-13T02:06:15.194Z,46.08
2023-02-13T02:08:42.969Z,38.90
2023-02-13T02:11:25.758Z,37.17
2023-02-13T02:13:53.580Z,43.20
2023-02-13T02:16:32.686Z,41.53
2023-02-13T02:19:03.500Z,40.97
2023-02-13T02:21:49.309Z,44.30
2023-02-13T02:24:54.677Z,43.05
2023-02-13T02:27:34.187Z,41.40
2023-02-13T02:30:36.217Z,46.45
2023-02-13T02:33:12.753Z,40.80
2023-02-13T02:35:47.900Z,43.80
2023-02-13T02:38:23.289Z,39.25
2023-02-13T02:41:02.468Z,35.80
2023-02-13T02:43:51.123Z,34.25
2023-02-13T02:46:25.253Z,40.05
2023-02-13T02:51:45.542Z,37.08
2023-02-13T02:54:43.118Z,38.05
2023-02-13T02:57:23.353Z,39.40
2023-02-13T03:00:16.722Z,52.20
2023-02-13T03:03:02.614Z,40.28
2023-02-13T03:05:50.241Z,39.72
2023-02-13T03:08:38.339Z,46.20
2023-02-13T03:11:24.696Z,33.70
2023-02-13T03:13:53.651Z,44.25
2023-02-13T03:16:42.046Z,41.78
2023-02-13T03:19:46.335Z,38.60
2023-02-13T03:22:39.611Z,43.47
2023-02-13T03:25:36.324Z,40.63
2023-02-13T03:28:49.844Z,35.40
2023-02-13T03:31:43.593Z,34.20
2023-02-13T03:34:17.530Z,33.72
2023-02-13T03:37:07.993Z,33.92
2023-02-13T03:39:56.778Z,37.15
2023-02-13T03:42:49.212Z,35.65
2023-02-13T03:45:43.107Z,34.20
2023-02-13T03:48:31.545Z,39.53
2023-02-13T03:51:00.594Z,38.45
2023-02-13T03:53:30.161Z,36.67
2023-02-13T03:56:18.056Z,37.67
2023-02-13T03:59:09.564Z,33.75
2023-02-13T04:01:37.979Z,36.15
2023-02-13T04:04:05.596Z,37.08
2023-02-13T04:06:56.402Z,34.67
2023-02-13T04:09:28.072Z,35.25
2023-02-13T04:12:19.532Z,37.80
2023-02-13T04:14:55.212Z,39.20
2023-02-13T04:17:30.418Z,32.40
2023-02-13T04:19:58.230Z,35.08
2023-02-13T04:22:25.519Z,32.80
2023-02-13T04:24:52.970Z,33.38
2023-02-13T04:27:20.396Z,33.97
2023-02-13T04:29:47.974Z,37.28
2023-02-13T04:32:15.492Z,35.05
2023-02-13T04:34:43.272Z,34.67
2023-02-13T04:37:10.652Z,32.65
2023-02-13T04:39:38.380Z,31.55
2023-02-13T04:42:05.722Z,34.05
2023-02-13T04:44:33.432Z,41.88
2023-02-13T04:47:00.896Z,36.42
2023-02-13T04:49:28.659Z,37.20
2023-02-13T04:51:56.055Z,35.33
2023-02-13T04:54:23.565Z,32.35
2023-02-13T04:56:50.849Z,35.58
2023-02-13T04:59:18.640Z,32.45
2023-02-13T05:01:46.075Z,34.97
2023-02-13T05:04:16.381Z,33.33
2023-02-13T05:06:43.855Z,38.53
2023-02-13T05:09:11.342Z,33.83
2023-02-13T05:11:38.503Z,34.58
2023-02-13T05:14:06.164Z,31.45
2023-02-13T05:16:33.851Z,33.65
2023-02-13T05:19:01.625Z,39.30
2023-02-13T05:21:47.442Z,36.40
2023-02-13T05:24:14.927Z,50.78
2023-02-13T05:26:42.359Z,48.13
2023-02-13T05:29:23.216Z,40.38
2023-02-13T05:31:53.241Z,35.22
2023-02-13T05:34:21.763Z,38.28
2023-02-13T05:36:49.591Z,36.83
2023-02-13T05:39:17.266Z,31.42
2023-02-13T05:41:45.666Z,33.85
2023-02-13T05:44:13.650Z,44.47
2023-02-13T05:46:41.615Z,35.90
2023-02-13T05:49:10.620Z,31.17
2023-02-13T05:51:37.849Z,40.10
2023-02-13T05:54:05.600Z,32.97
2023-02-13T05:56:32.738Z,31.05
2023-02-13T05:59:00.492Z,32.20
2023-02-13T06:01:27.708Z,40.60
2023-02-13T06:03:57.139Z,34.17
2023-02-13T06:06:25.926Z,34.85
2023-02-13T06:08:53.860Z,33.90
2023-02-13T06:11:21.372Z,34.97
2023-02-13T06:13:49.132Z,37.70
2023-02-13T06:16:16.279Z,32.30
2023-02-13T06:18:43.868Z,36.22
2023-02-13T06:21:11.100Z,28.50
2023-02-13T06:23:38.916Z,33.35
2023-02-13T06:26:08.083Z,33.95
2023-02-13T06:28:35.992Z,30.88
2023-02-13T06:31:03.414Z,36.53
2023-02-13T06:33:31.215Z,39.47
2023-02-13T06:35:58.485Z,30.95
2023-02-13T06:38:25.978Z,31.30
2023-02-13T06:40:53.359Z,32.50
2023-02-13T06:43:21.129Z,31.05
2023-02-13T06:45:48.275Z,30.50
2023-02-13T06:48:15.624Z,33.38
2023-02-13T06:50:42.938Z,30.92
2023-02-13T06:53:10.695Z,36.92
2023-02-13T06:55:39.583Z,33.95
2023-02-13T06:58:07.003Z,29.40
2023-02-13T07:00:34.250Z,27.33
2023-02-13T07:03:04.636Z,24.42
2023-02-13T07:05:33.353Z,29.58
2023-02-13T07:08:00.935Z,29.45
2023-02-13T07:10:28.308Z,26.30
2023-02-13T07:13:05.264Z,26.10
2023-02-13T07:15:34.035Z,27.70
2023-02-13T07:18:02.106Z,27.00
2023-02-13T07:20:29.656Z,27.80
2023-02-13T07:23:01.999Z,26.67
2023-02-13T07:25:29.897Z,27.83
2023-02-13T07:28:05.101Z,24.75
2023-02-13T07:30:33.380Z,29.20
2023-02-13T07:33:04.892Z,24.33
2023-02-13T07:35:32.522Z,24.65
2023-02-13T07:38:00.959Z,28.35
2023-02-13T07:40:28.384Z,23.35
2023-02-13T07:42:56.632Z,31.48
2023-02-13T07:45:23.981Z,23.38
2023-02-13T07:47:51.578Z,21.40
2023-02-13T07:50:18.899Z,27.02
2023-02-13T07:52:54.098Z,21.10
2023-02-13T07:55:21.765Z,25.10
2023-02-13T07:57:49.746Z,25.65
2023-02-13T08:00:17.609Z,26.05
2023-02-13T08:02:45.800Z,21.52
2023-02-13T08:05:13.153Z,20.35
2023-02-13T08:07:40.974Z,27.17
2023-02-13T08:10:27.371Z,22.00
2023-02-13T08:12:55.395Z,28.92
2023-02-13T08:15:23.956Z,21.65
2023-02-13T08:17:51.834Z,19.08
2023-02-13T08:20:19.196Z,18.73
2023-02-13T08:22:46.713Z,26.05
2023-02-13T08:25:14.224Z,23.83
2023-02-13T08:27:41.855Z,24.77
2023-02-13T08:30:10.272Z,25.30
2023-02-13T08:32:53.076Z,20.85
2023-02-13T08:35:20.812Z,21.63
2023-02-13T08:37:48.430Z,20.65
2023-02-13T08:40:15.606Z,17.50
2023-02-13T08:42:43.818Z,20.92
2023-02-13T08:45:11.980Z,21.73
2023-02-13T08:47:40.139Z,17.73
2023-02-13T08:50:08.156Z,23.13
2023-02-13T08:52:35.887Z,16.27
2023-02-13T08:55:03.925Z,19.55
2023-02-13T08:57:31.727Z,15.70
2023-02-13T08:59:59.006Z,16.60
2023-02-13T09:02:26.665Z,16.17
2023-02-13T09:04:53.894Z,18.67
2023-02-13T09:07:21.156Z,20.15
2023-02-13T09:09:48.521Z,17.30
2023-02-13T09:12:16.163Z,19.70
2023-02-13T09:14:43.542Z,18.63
2023-02-13T09:17:11.401Z,25.02
2023-02-13T09:19:38.695Z,19.35
2023-02-13T09:22:06.441Z,21.30
2023-02-13T09:24:33.805Z,19.58
2023-02-13T09:27:01.377Z,18.52
2023-02-13T09:29:31.895Z,16.63
2023-02-13T09:31:59.690Z,17.15
2023-02-13T09:34:27.390Z,13.80
2023-02-13T09:36:55.101Z,15.52
2023-02-13T09:39:22.720Z,16.67
2023-02-13T09:41:52.524Z,18.50
2023-02-13T09:44:42.352Z,14.18
2023-02-13T09:47:28.695Z,17.65
2023-02-13T09:49:59.344Z,18.17
2023-02-13T09:52:32.838Z,17.55
2023-02-13T09:55:04.430Z,16.52
2023-02-13T09:57:37.603Z,18.90
2023-02-13T10:00:13.500Z,19.20
2023-02-13T10:02:57.410Z,16.35
2023-02-13T10:05:37.174Z,21.02
2023-02-13T10:08:12.972Z,19.67
2023-02-13T10:11:17.776Z,17.98
2023-02-13T10:14:04.090Z,17.30
2023-02-13T10:16:38.476Z,20.13
2023-02-13T10:19:32.276Z,16.35
2023-02-13T10:22:04.945Z,16.15
2023-02-13T10:24:54.362Z,19.33
2023-02-13T10:27:26.866Z,20.55
2023-02-13T10:30:23.695Z,18.88
2023-02-13T10:33:18.606Z,17.05
2023-02-13T10:36:24.736Z,23.08
2023-02-13T10:39:02.986Z,19.77
2023-02-13T10:41:49.240Z,25.58
2023-02-13T10:44:42.514Z,24.48
2023-02-13T10:47:41.055Z,22.00
2023-02-13T10:50:31.262Z,21.02
2023-02-13T10:53:41.165Z,19.60
2023-02-13T10:56:11.287Z,18.38
2023-02-13T10:58:57.486Z,21.10
2023-02-13T11:01:34.208Z,23.58
2023-02-13T11:04:13.532Z,21.90
2023-02-13T11:06:55.700Z,19.63
2023-02-13T11:09:24.243Z,21.00
2023-02-13T11:11:52.414Z,18.60
2023-02-13T11:14:25.314Z,21.55
2023-02-13T11:17:06.088Z,22.23
2023-02-13T11:19:37.378Z,30.00
2023-02-13T11:22:16.868Z,26.35
2023-02-13T11:24:54.194Z,24.40
2023-02-13T11:27:27.364Z,23.00
2023-02-13T11:29:57.653Z,20.17
2023-02-13T11:32:35.341Z,23.67
2023-02-13T11:35:29.497Z,24.08
2023-02-13T11:38:15.722Z,18.67
2023-02-13T11:40:48.804Z,19.95
2023-02-13T11:43:30.620Z,21.88
2023-02-13T11:46:03.754Z,23.13
2023-02-13T11:48:31.486Z,24.83
2023-02-13T11:50:59.420Z,24.85
2023-02-13T11:53:33.149Z,20.27
2023-02-13T11:56:15.301Z,23.35
2023-02-13T11:58:43.312Z,23.70
2023-02-13T12:01:23.073Z,19.08
2023-02-13T12:04:18.153Z,21.35
2023-02-13T12:06:59.561Z,20.67
2023-02-13T12:09:28.520Z,27.27
2023-02-13T12:11:59.509Z,29.40
2023-02-13T12:14:31.037Z,27.70
2023-02-13T12:17:10.868Z,22.73
2023-02-13T12:19:45.940Z,24.48
2023-02-13T12:22:52.485Z,19.75
2023-02-13T12:25:24.218Z,21.07
2023-02-13T12:28:27.150Z,19.08
2023-02-13T12:31:13.123Z,23.48
2023-02-13T12:34:00.650Z,29.40
2023-02-13T12:36:53.120Z,20.85
2023-02-13T12:39:39.328Z,16.92
2023-02-13T12:42:38.516Z,19.10
2023-02-13T12:45:18.555Z,20.38
2023-02-13T12:48:11.914Z,18.10
2023-02-13T12:50:46.474Z,18.98
2023-02-13T12:53:39.845Z,17.33
2023-02-13T12:59:10.081Z,14.32
2023-02-13T13:02:09.619Z,19.50
2023-02-13T13:05:14.312Z,16.45
2023-02-13T13:08:17.638Z,18.52
2023-02-13T13:10:44.919Z,17.85
2023-02-13T13:13:24.389Z,17.52
2023-02-13T13:16:16.576Z,12.23
2023-02-13T13:18:44.555Z,13.25
2023-02-13T13:21:14.569Z,13.48
2023-02-13T13:23:44.601Z,12.38
2023-02-13T13:26:15.166Z,13.55
2023-02-13T13:28:44.370Z,12.13
2023-02-13T13:31:13.876Z,12.10
2023-02-13T13:33:44.465Z,11.82
2023-02-13T13:36:30.596Z,8.95
2023-02-13T13:39:04.274Z,11.40
2023-02-13T13:42:15.347Z,11.05
2023-02-13T13:44:49.227Z,8.70
2023-02-13T13:47:41.291Z,6.75
2023-02-13T13:50:36.078Z,8.55
2023-02-13T13:53:10.402Z,12.57
2023-02-13T13:55:50.880Z,10.25
2023-02-13T13:58:31.678Z,8.82
2023-02-13T14:01:25.281Z,7.95
2023-02-13T14:04:02.485Z,10.02
2023-02-13T14:06:51.894Z,7.82
2023-02-13T14:09:39.822Z,7.68
2023-02-13T14:12:25.759Z,13.45
2023-02-13T14:14:54.285Z,10.48
2023-02-13T14:17:46.978Z,12.93
2023-02-13T14:20:22.293Z,13.02
2023-02-13T14:22:50.171Z,12.10
2023-02-13T14:25:29.764Z,10.48
2023-02-13T14:28:05.010Z,9.70
2023-02-13T14:30:37.245Z,13.35
2023-02-13T14:33:07.586Z,12.20
2023-02-13T14:35:37.570Z,14.82
2023-02-13T14:38:08.277Z,13.43
2023-02-13T14:40:52.644Z,11.75
2023-02-13T14:43:27.877Z,13.48
2023-02-13T14:45:57.198Z,14.30
2023-02-13T14:48:45.671Z,14.75
2023-02-13T14:51:37.334Z,12.73
2023-02-13T14:54:15.438Z,13.95
2023-02-13T14:56:45.532Z,19.65
2023-02-13T14:59:23.335Z,17.70
2023-02-13T15:02:34.278Z,15.55
2023-02-13T15:05:05.013Z,12.55
2023-02-13T15:07:37.403Z,16.23
2023-02-13T15:10:25.727Z,12.88
2023-02-13T15:13:01.341Z,15.23
2023-02-13T15:15:38.358Z,13.32
2023-02-13T15:18:10.184Z,13.30
2023-02-13T15:20:40.219Z,16.70
2023-02-13T15:23:07.754Z,13.15
2023-02-13T15:25:39.644Z,13.70
2023-02-13T15:28:20.170Z,19.70
2023-02-13T15:31:00.251Z,14.98
2023-02-13T15:33:33.114Z,20.70
2023-02-13T15:36:04.766Z,20.48
2023-02-13T15:38:36.623Z,20.60
2023-02-13T15:41:23.404Z,21.95
2023-02-13T15:43:58.302Z,18.67
2023-02-13T15:46:42.171Z,18.63
2023-02-13T15:49:15.626Z,23.60
2023-02-13T15:51:44.130Z,16.13
2023-02-13T15:54:31.440Z,18.55
2023-02-13T15:57:07.319Z,19.67
2023-02-13T15:59:38.213Z,19.35
2023-02-13T16:02:13.066Z,17.05
2023-02-13T16:04:41.696Z,19.10
2023-02-13T16:07:12.236Z,23.95
2023-02-13T16:09:40.107Z,23.25
2023-02-13T16:12:26.913Z,25.98
2023-02-13T16:15:02.480Z,18.42
2023-02-13T16:17:34.489Z,20.38
2023-02-13T16:20:08.786Z,23.08
2023-02-13T16:22:44.221Z,24.70
2023-02-13T16:25:14.687Z,20.63
2023-02-13T16:27:45.975Z,18.55
2023-02-13T16:30:42.353Z,17.52
2023-02-13T16:33:16.292Z,19.35
2023-02-13T16:35:45.638Z,19.50
2023-02-13T16:38:33.118Z,18.83
2023-02-13T16:41:23.840Z,20.30
2023-02-13T16:43:53.261Z,18.95
2023-02-13T16:46:30.795Z,18.40
2023-02-13T16:49:01.495Z,19.23
2023-02-13T16:51:40.504Z,25.05
2023-02-13T16:54:11.331Z,20.50
2023-02-13T16:56:50.039Z,23.40
2023-02-13T16:59:17.798Z,18.42
2023-02-13T17:01:45.074Z,20.83
2023-02-13T17:04:23.723Z,22.27
2023-02-13T17:06:57.457Z,19.90
2023-02-13T17:09:24.988Z,19.98
2023-02-13T17:11:54.165Z,14.30
2023-02-13T17:14:22.044Z,10.90
2023-02-13T17:16:49.632Z,17.33
2023-02-13T17:19:17.258Z,14.73
2023-02-13T17:21:44.718Z,16.13
2023-02-13T17:24:17.942Z,19.40
2023-02-13T17:26:45.354Z,17.80
2023-02-13T17:29:13.025Z,14.70
2023-02-13T17:31:40.556Z,14.20
2023-02-13T17:34:08.322Z,17.15
2023-02-13T17:36:36.058Z,22.08
2023-02-13T17:39:03.976Z,15.55
2023-02-13T17:41:31.445Z,17.42
2023-02-13T17:43:59.230Z,16.05
2023-02-13T17:46:26.745Z,17.23
2023-02-13T17:48:54.421Z,15.02
2023-02-13T17:51:21.875Z,16.38
2023-02-13T17:53:50.422Z,15.40
2023-02-13T17:56:18.023Z,17.02
2023-02-13T17:58:45.804Z,18.65
2023-02-13T18:01:13.278Z,17.65
2023-02-13T18:03:40.779Z,18.20
2023-02-13T18:06:13.210Z,15.45
2023-02-13T18:08:41.135Z,17.00
2023-02-13T18:11:12.380Z,20.55
2023-02-13T18:13:44.180Z,23.00
2023-02-13T18:16:11.748Z,15.70
2023-02-13T18:18:39.519Z,19.48
2023-02-13T18:21:06.919Z,19.33
2023-02-13T18:23:34.632Z,32.13
2023-02-13T18:26:10.291Z,53.95
2023-02-13T18:28:38.207Z,30.58
2023-02-13T18:31:05.733Z,23.80
2023-02-13T18:33:33.363Z,24.98
2023-02-13T18:36:02.656Z,24.45
2023-02-13T18:38:30.444Z,17.27
2023-02-13T18:40:58.206Z,19.20
2023-02-13T18:43:26.123Z,21.40
2023-02-13T18:45:53.705Z,20.08
2023-02-13T18:48:21.455Z,20.08
2023-02-13T18:50:49.024Z,20.52
2023-02-13T18:53:16.745Z,17.52
2023-02-13T18:55:44.029Z,22.15
2023-02-13T18:58:11.747Z,19.88
2023-02-13T19:00:39.139Z,21.50
2023-02-13T19:03:06.680Z,27.92
2023-02-13T19:05:34.415Z,21.40
2023-02-13T19:08:02.392Z,18.63
2023-02-13T19:10:29.760Z,21.38
2023-02-13T19:12:57.530Z,22.65
2023-02-13T19:15:24.819Z,19.63
2023-02-13T19:17:57.271Z,23.17
2023-02-13T19:20:24.673Z,18.67
2023-02-13T19:22:52.693Z,19.98
2023-02-13T19:25:22.122Z,18.45
2023-02-13T19:27:49.854Z,20.20
2023-02-13T19:30:17.350Z,23.38
2023-02-13T19:32:45.188Z,20.90
2023-02-13T19:35:12.513Z,20.50
2023-02-13T19:37:44.043Z,21.77
2023-02-13T19:40:13.551Z,25.13
2023-02-13T19:42:41.242Z,20.08
2023-02-13T19:45:10.550Z,14.52
2023-02-13T19:47:39.166Z,19.25
2023-02-13T19:50:07.288Z,22.13
2023-02-13T19:52:34.999Z,20.15
2023-02-13T19:55:02.514Z,29.08
2023-02-13T19:57:30.542Z,18.95
2023-02-13T20:00:01.029Z,17.23
2023-02-13T20:02:28.940Z,13.35
2023-02-13T20:04:56.601Z,15.43
2023-02-13T20:07:24.330Z,16.45
2023-02-13T20:09:51.666Z,17.17
2023-02-13T20:12:19.378Z,17.58
2023-02-13T20:14:46.706Z,19.73
2023-02-13T20:17:14.475Z,16.02
2023-02-13T20:19:42.094Z,14.55
2023-02-13T20:22:09.977Z,12.35
2023-02-13T20:24:37.519Z,16.13
2023-02-13T20:27:05.270Z,14.80
2023-02-13T20:29:33.863Z,14.68
2023-02-13T20:32:02.236Z,16.45
2023-02-13T20:34:31.621Z,14.18
2023-02-13T20:37:05.278Z,16.67
2023-02-13T20:39:32.668Z,20.52
2023-02-13T20:42:00.439Z,16.23
2023-02-13T20:44:29.668Z,20.10
2023-02-13T20:46:58.723Z,18.17
2023-02-13T20:49:27.189Z,27.10
2023-02-13T20:51:54.937Z,18.90
2023-02-13T20:54:22.305Z,14.25
2023-02-13T20:56:50.150Z,17.35
2023-02-13T20:59:17.607Z,18.80
2023-02-13T21:01:46.743Z,18.85
2023-02-13T21:04:19.290Z,16.58
2023-02-13T21:06:47.699Z,17.73
2023-02-13T21:09:15.812Z,15.25
2023-02-13T21:11:44.911Z,19.95
2023-02-13T21:14:13.079Z,15.68
2023-02-13T21:16:41.855Z,21.48
2023-02-13T21:19:13.598Z,18.98
2023-02-13T21:21:44.284Z,27.40
2023-02-13T21:24:17.646Z,28.42
2023-02-13T21:26:47.008Z,15.38
2023-02-13T21:29:14.521Z,19.15
2023-02-13T21:31:45.137Z,22.05
2023-02-13T21:34:13.641Z,18.45
2023-02-13T21:36:41.438Z,18.77
2023-02-13T21:39:10.252Z,20.10
2023-02-13T21:41:40.851Z,23.00
2023-02-13T21:44:08.318Z,18.80
2023-02-13T21:46:36.168Z,21.08
2023-02-13T21:49:05.935Z,19.80
2023-02-13T21:51:35.711Z,25.60
2023-02-13T21:54:04.599Z,19.70
2023-02-13T21:56:38.463Z,19.88
2023-02-13T21:59:06.809Z,20.52
2023-02-13T22:01:46.787Z,17.70
2023-02-13T22:04:14.270Z,19.88
2023-02-13T22:06:41.872Z,25.85
2023-02-13T22:09:11.953Z,23.05
2023-02-13T22:11:40.005Z,25.75
2023-02-13T22:14:10.709Z,19.05
2023-02-13T22:16:39.448Z,17.98
2023-02-13T22:19:07.299Z,19.70
2023-02-13T22:21:36.509Z,23.08
2023-02-13T22:24:04.170Z,18.35
2023-02-13T22:26:36.500Z,22.88
2023-02-13T22:29:06.599Z,15.23
2023-02-13T22:31:35.192Z,17.50
2023-02-13T22:34:04.334Z,24.75
2023-02-13T22:36:35.039Z,18.05
2023-02-13T22:39:02.540Z,13.70
2023-02-13T22:41:30.340Z,20.67
2023-02-13T22:43:57.820Z,17.80
2023-02-13T22:46:31.206Z,15.70
2023-02-13T22:48:59.805Z,17.33
2023-02-13T22:51:31.327Z,19.52
2023-02-13T22:53:59.264Z,18.20
2023-02-13T22:56:28.547Z,17.02
2023-02-13T22:58:55.992Z,16.27
2023-02-13T23:01:24.981Z,22.00
2023-02-13T23:03:52.518Z,19.88
2023-02-13T23:06:21.986Z,18.30
2023-02-13T23:08:52.798Z,19.38
2023-02-13T23:11:42.280Z,19.35
2023-02-13T23:14:10.443Z,18.23
2023-02-13T23:16:57.847Z,28.75
2023-02-13T23:19:27.412Z,18.48
2023-02-13T23:21:55.773Z,17.98
2023-02-13T23:24:23.058Z,17.40
2023-02-13T23:26:50.878Z,21.45
2023-02-13T23:29:18.425Z,16.58
2023-02-13T23:31:46.232Z,14.15
2023-02-13T23:34:13.600Z,23.00
2023-02-13T23:36:41.272Z,16.63
2023-02-13T23:39:08.628Z,16.45
2023-02-13T23:41:36.129Z,11.45
2023-02-13T23:44:03.537Z,16.30
2023-02-13T23:46:31.193Z,12.27
2023-02-13T23:48:58.580Z,13.23
2023-02-13T23:51:26.470Z,16.10
2023-02-13T23:53:56.356Z,18.17
2023-02-13T23:56:25.366Z,10.88
2023-02-13T23:58:53.234Z,17.83
